Time;durP1;ratioP1;P1;durP2;ratioP2;P2;SDS_P1;SDS_P2;PMS_P1;PMS_P2;Temp;Humidity;BMP_temperature;BMP_pressure;BME280_temperature;BME280_humidity;BME280_pressure;Samples;Min_cycle;Max_cycle;Signal;HPM_P1;HPM_P2
2021/11/03 00:00:41;;;;;;;22.27;10.27;;;3.90;99.90;;;;;;4997447;28;20054;-88
2021/11/03 00:03:11;;;;;;;24.70;11.95;;;3.80;99.90;;;;;;4997885;28;20042;-89
2021/11/03 00:05:45;;;;;;;25.63;14.07;;;3.80;99.90;;;;;;4983725;28;20057;-90
2021/11/03 00:08:16;;;;;;;26.50;13.52;;;3.80;99.90;;;;;;4985226;28;20055;-90
2021/11/03 00:10:46;;;;;;;28.98;14.00;;;3.80;99.90;;;;;;5021228;28;20058;-89
2021/11/03 00:13:16;;;;;;;31.70;14.85;;;3.80;99.90;;;;;;4990407;28;20062;-90
2021/11/03 00:15:44;;;;;;;33.33;13.40;;;5.10;99.90;;;;;;5025223;28;20045;-88
2021/11/03 00:18:12;;;;;;;22.85;12.57;;;3.70;99.90;;;;;;5008769;28;20056;-90
2021/11/03 00:20:40;;;;;;;23.48;13.15;;;5.00;99.90;;;;;;5028251;28;20046;-90
2021/11/03 00:23:09;;;;;;;28.50;11.38;;;3.70;99.90;;;;;;4997770;28;20062;-90
2021/11/03 00:25:40;;;;;;;32.00;13.55;;;3.70;99.90;;;;;;4970191;28;20058;-88
2021/11/03 00:28:12;;;;;;;24.88;12.48;;;3.60;99.90;;;;;;5010762;28;20053;-89
2021/11/03 00:30:41;;;;;;;21.80;10.95;;;3.70;99.90;;;;;;4978833;28;20042;-88
2021/11/03 00:33:09;;;;;;;28.60;12.80;;;4.60;99.90;;;;;;5012159;28;20061;-89
2021/11/03 00:35:38;;;;;;;21.50;11.77;;;3.60;99.90;;;;;;5011632;28;20053;-88
2021/11/03 00:38:07;;;;;;;25.15;11.23;;;3.60;99.90;;;;;;5011583;28;20038;-91
2021/11/03 00:40:35;;;;;;;17.90;10.68;;;4.60;99.90;;;;;;5028724;28;20042;-89
2021/11/03 00:43:04;;;;;;;22.65;9.45;;;4.30;99.90;;;;;;5011619;28;20041;-88
2021/11/03 00:45:32;;;;;;;25.05;9.82;;;4.20;99.90;;;;;;5012677;28;20093;-90
2021/11/03 00:48:02;;;;;;;25.27;9.88;;;5.10;99.90;;;;;;4996590;28;20064;-88
2021/11/03 00:50:34;;;;;;;18.95;10.32;;;3.50;99.90;;;;;;5013840;28;20048;-90
2021/11/03 00:53:06;;;;;;;30.58;12.90;;;3.40;99.90;;;;;;5014125;28;20050;-89
2021/11/03 00:55:36;;;;;;;;;;;3.50;99.90;;;;;;5014755;28;20045;-89
2021/11/03 00:58:05;;;;;;;22.80;11.60;;;3.50;99.90;;;;;;5014739;28;20426;-89
2021/11/03 01:00:34;;;;;;;26.30;13.68;;;3.50;99.90;;;;;;4997707;28;20068;-90
2021/11/03 01:03:11;;;;;;;19.80;10.05;;;4.80;99.90;;;;;;5013543;28;20038;-90
2021/11/03 01:05:39;;;;;;;23.05;11.25;;;5.10;99.90;;;;;;5031434;28;20064;-90
2021/11/03 01:08:12;;;;;;;24.05;11.40;;;4.90;99.90;;;;;;5010974;28;20065;-88
2021/11/03 01:10:46;;;;;;;19.00;9.32;;;3.50;99.90;;;;;;5019374;28;20054;-90
2021/11/03 01:13:16;;;;;;;25.27;11.63;;;3.40;99.90;;;;;;5031541;28;20049;-90
2021/11/03 01:15:46;;;;;;;23.17;10.95;;;3.40;99.90;;;;;;4998095;28;20049;-89
2021/11/03 01:18:14;;;;;;;22.65;11.27;;;3.40;99.90;;;;;;5011970;28;20053;-90
2021/11/03 01:20:45;;;;;;;18.47;9.73;;;3.40;99.90;;;;;;5028256;28;20040;-88
2021/11/03 01:23:14;;;;;;;19.65;9.52;;;3.30;99.90;;;;;;5040281;28;20051;-89
2021/11/03 01:25:59;;;;;;;20.10;10.95;;;3.40;99.90;;;;;;5010068;28;20045;-89
2021/11/03 01:28:27;;;;;;;22.73;10.93;;;3.40;99.90;;;;;;5029417;28;20065;-91
2021/11/03 01:30:55;;;;;;;20.48;10.23;;;3.30;99.90;;;;;;5011293;28;20044;-89
2021/11/03 01:33:23;;;;;;;22.38;10.10;;;3.30;99.90;;;;;;5011813;28;20045;-90
2021/11/03 01:35:52;;;;;;;15.50;8.48;;;3.30;99.90;;;;;;4996764;28;20054;-89
2021/11/03 01:38:21;;;;;;;17.17;8.75;;;3.20;99.90;;;;;;5010893;28;20046;-88
2021/11/03 01:40:51;;;;;;;21.25;11.15;;;3.50;99.90;;;;;;4996476;28;20052;-88
2021/11/03 01:43:43;;;;;;;25.90;10.90;;;3.20;99.90;;;;;;5028331;28;20058;-90
2021/11/03 01:46:21;;;;;;;19.92;9.35;;;3.20;99.90;;;;;;5014007;28;20053;-91
2021/11/03 01:49:27;;;;;;;18.65;9.85;;;4.30;99.90;;;;;;5000240;28;20496;-88
2021/11/03 01:52:12;;;;;;;18.08;9.35;;;3.10;99.90;;;;;;5010503;28;20489;-90
2021/11/03 01:54:49;;;;;;;17.95;9.23;;;3.10;99.90;;;;;;5009695;28;20045;-91
2021/11/03 01:57:26;;;;;;;23.60;11.52;;;3.10;99.90;;;;;;5010291;28;20057;-91
2021/11/03 01:59:59;;;;;;;19.38;8.90;;;3.40;99.90;;;;;;4990679;28;20052;-90
2021/11/03 02:02:42;;;;;;;16.73;10.48;;;3.10;99.90;;;;;;5024173;28;20498;-89
2021/11/03 02:05:18;;;;;;;17.27;10.32;;;3.00;99.90;;;;;;5024357;28;20465;-91
2021/11/03 02:07:52;;;;;;;18.13;9.23;;;3.00;99.90;;;;;;5005154;28;20052;-88
2021/11/03 02:10:22;;;;;;;21.85;10.20;;;4.30;99.90;;;;;;5023383;28;20064;-88
2021/11/03 02:12:54;;;;;;;27.80;11.70;;;3.00;99.90;;;;;;4988284;28;20045;-90
2021/11/03 02:15:24;;;;;;;24.23;10.45;;;4.30;99.90;;;;;;5002901;28;20042;-91
2021/11/03 02:17:53;;;;;;;22.38;10.45;;;3.00;99.90;;;;;;4998775;28;20421;-90
2021/11/03 02:20:33;;;;;;;22.95;10.68;;;3.30;99.90;;;;;;5008855;28;20611;-89
2021/11/03 02:23:32;;;;;;;23.58;12.45;;;3.00;99.90;;;;;;5001272;28;20374;-88
2021/11/03 02:26:09;;;;;;;20.83;12.13;;;4.80;99.90;;;;;;5001345;28;20493;-89
2021/11/03 02:28:41;;;;;;;21.77;11.60;;;2.90;99.90;;;;;;4963487;28;20046;-89
2021/11/03 02:31:26;;;;;;;22.95;10.15;;;2.90;99.90;;;;;;4974351;28;20054;-87
2021/11/03 02:33:54;;;;;;;27.92;11.70;;;4.50;99.90;;;;;;4980020;28;20057;-89
2021/11/03 02:36:21;;;;;;;21.83;11.45;;;4.20;99.90;;;;;;5014904;28;20046;-89
2021/11/03 02:38:50;;;;;;;27.38;12.98;;;4.20;99.90;;;;;;5017017;28;20058;-91
2021/11/03 02:41:28;;;;;;;25.02;11.05;;;2.90;99.90;;;;;;4977254;28;20421;-89
2021/11/03 02:44:14;;;;;;;24.08;10.20;;;2.90;99.90;;;;;;5026481;28;20054;-89
2021/11/03 02:46:43;;;;;;;21.65;9.88;;;2.90;99.90;;;;;;5010497;28;20244;-88
2021/11/03 02:49:12;;;;;;;25.42;10.57;;;3.90;99.90;;;;;;5009355;28;20060;-88
2021/11/03 02:51:42;;;;;;;24.60;12.77;;;3.00;99.90;;;;;;5009393;28;20517;-88
2021/11/03 02:54:19;;;;;;;23.08;11.65;;;2.90;99.90;;;;;;4998943;28;20481;-89
2021/11/03 02:56:57;;;;;;;20.63;10.32;;;2.80;99.90;;;;;;4998453;28;20046;-88
2021/11/03 02:59:26;;;;;;;31.38;11.95;;;3.40;99.90;;;;;;4980004;28;20053;-90
2021/11/03 03:01:58;;;;;;;21.92;12.00;;;3.00;99.90;;;;;;4980224;28;20046;-89
2021/11/03 03:04:31;;;;;;;27.42;12.00;;;4.50;99.90;;;;;;4980122;28;20042;-88
2021/11/03 03:07:04;;;;;;;28.00;10.32;;;4.20;99.90;;;;;;4995668;28;20042;-87
2021/11/03 03:09:32;;;;;;;25.65;11.98;;;2.80;99.90;;;;;;5027677;28;20529;-89
2021/11/03 03:12:03;;;;;;;30.52;11.18;;;2.80;99.90;;;;;;4979751;28;20037;-89
2021/11/03 03:14:38;;;;;;;19.65;11.15;;;2.80;99.90;;;;;;4978995;28;20057;-88
2021/11/03 03:17:09;;;;;;;19.02;9.27;;;2.80;99.90;;;;;;5011340;28;20045;-87
2021/11/03 03:19:38;;;;;;;23.08;11.50;;;2.70;99.90;;;;;;4994428;28;20045;-88
2021/11/03 03:22:07;;;;;;;19.83;10.07;;;2.70;99.90;;;;;;4996051;28;20072;-90
2021/11/03 03:24:35;;;;;;;19.97;11.97;;;3.90;99.90;;;;;;4649260;28;10000777;-89
2021/11/03 03:27:04;;;;;;;25.63;10.02;;;2.70;99.90;;;;;;4980289;28;20478;-87
2021/11/03 03:29:33;;;;;;;21.85;11.57;;;2.70;99.90;;;;;;4976201;28;20065;-90
2021/11/03 03:32:02;;;;;;;24.10;12.43;;;2.60;99.90;;;;;;5017648;28;20044;-88
2021/11/03 03:34:32;;;;;;;35.15;14.65;;;2.70;99.90;;;;;;5012878;28;20054;-88
2021/11/03 03:37:01;;;;;;;21.05;13.63;;;2.70;99.90;;;;;;4995497;28;20053;-88
2021/11/03 03:39:33;;;;;;;29.80;12.90;;;2.70;99.90;;;;;;4978601;28;20060;-88
2021/11/03 03:42:05;;;;;;;30.83;16.52;;;2.70;99.90;;;;;;4999261;28;20053;-88
2021/11/03 03:44:34;;;;;;;29.50;13.15;;;2.70;99.90;;;;;;4993876;28;20050;-88
2021/11/03 03:47:02;;;;;;;28.98;13.50;;;4.20;99.90;;;;;;5026089;28;20053;-88
2021/11/03 03:49:31;;;;;;;24.42;15.13;;;2.80;99.90;;;;;;5010043;28;20056;-90
2021/11/03 03:52:00;;;;;;;30.48;18.05;;;3.80;99.90;;;;;;4993118;28;20046;-89
2021/11/03 03:54:28;;;;;;;27.88;12.30;;;4.50;99.90;;;;;;4994681;28;20050;-87
2021/11/03 03:56:56;;;;;;;27.52;13.02;;;2.80;99.90;;;;;;4981434;28;20469;-89
2021/11/03 03:59:24;;;;;;;33.00;15.70;;;4.00;99.90;;;;;;5031117;28;20045;-87
2021/11/03 04:01:53;;;;;;;33.03;17.58;;;2.80;99.90;;;;;;4998335;28;20049;-87
2021/11/03 04:04:21;;;;;;;29.10;13.98;;;2.80;99.90;;;;;;4996637;28;20050;-89
2021/11/03 04:06:52;;;;;;;30.85;16.38;;;2.80;99.90;;;;;;4998080;28;20042;-89
2021/11/03 04:09:21;;;;;;;32.78;16.98;;;2.70;99.90;;;;;;4969733;28;20054;-89
2021/11/03 04:11:49;;;;;;;33.35;18.60;;;3.20;99.90;;;;;;4979955;28;20054;-88
2021/11/03 04:14:20;;;;;;;29.48;15.48;;;2.70;99.90;;;;;;4964258;28;20509;-86
2021/11/03 04:16:48;;;;;;;34.25;17.02;;;2.70;99.90;;;;;;4996088;28;20049;-88
2021/11/03 04:19:17;;;;;;;30.77;14.57;;;3.70;99.90;;;;;;4996396;28;20072;-87
2021/11/03 04:21:44;;;;;;;34.70;16.95;;;2.70;99.90;;;;;;5001441;28;20057;-88
2021/11/03 04:24:22;;;;;;;27.48;13.68;;;2.70;99.90;;;;;;4986905;28;20054;-89
2021/11/03 04:26:51;;;;;;;32.53;15.88;;;2.60;99.90;;;;;;4996881;28;20045;-89
2021/11/03 04:29:20;;;;;;;29.33;15.90;;;2.60;99.90;;;;;;4996871;28;20054;-89
2021/11/03 04:31:50;;;;;;;35.75;17.42;;;2.90;99.90;;;;;;4985282;28;20053;-88
2021/11/03 04:34:19;;;;;;;27.75;16.45;;;3.10;99.90;;;;;;4997051;28;20045;-86
2021/11/03 04:36:52;;;;;;;27.20;15.27;;;3.60;99.90;;;;;;4980525;28;20049;-87
2021/11/03 04:39:20;;;;;;;34.05;17.75;;;2.60;99.90;;;;;;4997732;28;20077;-88
2021/11/03 04:41:50;;;;;;;30.63;16.63;;;2.60;99.90;;;;;;4998283;28;20050;-89
2021/11/03 04:44:19;;;;;;;34.22;16.25;;;2.50;99.90;;;;;;4980593;28;20042;-87
2021/11/03 04:46:48;;;;;;;24.77;13.32;;;2.50;99.90;;;;;;4979600;28;20493;-86
2021/11/03 04:49:19;;;;;;;28.27;14.07;;;2.50;99.90;;;;;;4981778;28;20360;-88
2021/11/03 04:51:52;;;;;;;27.42;14.85;;;2.50;99.90;;;;;;4981470;28;20061;-87
2021/11/03 04:54:19;;;;;;;35.33;14.73;;;2.50;99.90;;;;;;4996008;28;20068;-88
2021/11/03 04:56:49;;;;;;;29.38;15.68;;;3.90;99.90;;;;;;4997107;28;20046;-89
2021/11/03 04:59:18;;;;;;;28.80;13.65;;;2.40;99.90;;;;;;4983960;28;20042;-87
2021/11/03 05:01:49;;;;;;;30.27;13.05;;;2.40;99.90;;;;;;5008217;28;20054;-89
2021/11/03 05:04:18;;;;;;;23.73;13.05;;;2.50;99.90;;;;;;5015806;28;20038;-89
2021/11/03 05:06:48;;;;;;;26.13;15.32;;;3.90;99.90;;;;;;5015599;28;20508;-89
2021/11/03 05:09:18;;;;;;;30.92;15.45;;;2.40;99.90;;;;;;4998055;28;20057;-87
2021/11/03 05:11:48;;;;;;;32.03;18.70;;;2.40;99.90;;;;;;4983934;28;20485;-88
2021/11/03 05:14:17;;;;;;;19.38;12.55;;;2.90;99.90;;;;;;4999407;28;20049;-87
2021/11/03 05:16:49;;;;;;;31.52;15.90;;;2.40;99.90;;;;;;5016016;28;20072;-87
2021/11/03 05:19:22;;;;;;;28.63;15.65;;;1.50;99.90;;;;;;5000898;28;20042;-88
2021/11/03 05:21:56;;;;;;;34.40;17.70;;;2.40;99.90;;;;;;4984666;28;20065;-88
2021/11/03 05:24:26;;;;;;;27.27;14.07;;;2.00;99.90;;;;;;5018172;28;20057;-87
2021/11/03 05:26:54;;;;;;;29.90;16.15;;;2.40;99.90;;;;;;5033691;28;20061;-87
2021/11/03 05:29:23;;;;;;;28.23;16.50;;;2.40;99.90;;;;;;5017674;28;20042;-87
2021/11/03 05:31:50;;;;;;;33.08;14.85;;;3.60;99.90;;;;;;5021381;28;20072;-87
2021/11/03 05:34:19;;;;;;;29.33;15.35;;;2.40;99.90;;;;;;5015528;28;20153;-86
2021/11/03 05:36:46;;;;;;;30.27;16.90;;;3.50;99.90;;;;;;4981695;28;20045;-85
2021/11/03 05:39:16;;;;;;;34.17;17.23;;;2.40;99.90;;;;;;4998342;28;20054;-86
2021/11/03 05:41:45;;;;;;;39.33;17.40;;;2.50;99.90;;;;;;5015443;28;20064;-86
2021/11/03 05:44:15;;;;;;;28.05;15.50;;;2.40;99.90;;;;;;5013346;28;20310;-87
2021/11/03 05:46:47;;;;;;;32.47;16.70;;;4.40;99.90;;;;;;4995813;28;20049;-87
2021/11/03 05:49:18;;;;;;;29.50;17.05;;;2.50;99.90;;;;;;5013449;28;20052;-88
2021/11/03 05:51:53;;;;;;;32.10;15.80;;;2.90;99.90;;;;;;4995642;28;20058;-85
2021/11/03 05:54:25;;;;;;;25.58;16.05;;;2.60;99.90;;;;;;4996403;28;20041;-87
2021/11/03 05:56:56;;;;;;;30.17;16.60;;;2.50;99.90;;;;;;4993270;28;20422;-86
2021/11/03 05:59:24;;;;;;;30.30;15.93;;;2.50;99.90;;;;;;4993215;28;20061;-87
2021/11/03 06:02:11;;;;;;;33.30;16.35;;;3.60;99.90;;;;;;4974664;28;20046;-87
2021/11/03 06:04:46;;;;;;;35.55;16.00;;;2.50;99.90;;;;;;4996266;28;20054;-88
2021/11/03 06:07:16;;;;;;;31.00;16.38;;;2.60;99.90;;;;;;4979349;28;20050;-89
2021/11/03 06:09:53;;;;;;;31.35;15.57;;;2.60;99.90;;;;;;5012346;28;20053;-87
2021/11/03 06:12:21;;;;;;;28.20;15.75;;;2.60;99.90;;;;;;4993784;28;20061;-86
2021/11/03 06:14:48;;;;;;;25.52;16.17;;;2.50;99.90;;;;;;5010900;28;20045;-87
2021/11/03 06:17:16;;;;;;;31.08;15.18;;;2.60;99.90;;;;;;4987458;28;20046;-89
2021/11/03 06:19:44;;;;;;;29.20;14.82;;;2.50;99.90;;;;;;4995125;28;20054;-89
2021/11/03 06:22:12;;;;;;;21.52;13.77;;;2.90;99.90;;;;;;4994206;28;20049;-88
2021/11/03 06:24:44;;;;;;;25.63;13.95;;;2.50;99.90;;;;;;4990529;28;20050;-88
2021/11/03 06:27:12;;;;;;;33.08;14.55;;;2.50;99.90;;;;;;4979000;28;20245;-87
2021/11/03 06:29:40;;;;;;;30.75;16.25;;;2.60;99.90;;;;;;5013351;28;20076;-87
2021/11/03 06:32:08;;;;;;;33.75;19.20;;;4.20;99.90;;;;;;5014066;28;20054;-87
2021/11/03 06:34:36;;;;;;;37.65;16.98;;;2.70;99.90;;;;;;4979633;28;20058;-88
2021/11/03 06:37:05;;;;;;;51.42;19.50;;;3.30;99.90;;;;;;4969113;28;20085;-89
2021/11/03 06:39:34;;;;;;;30.98;17.52;;;2.70;99.90;;;;;;5019752;28;20057;-89
2021/11/03 06:42:02;;;;;;;30.42;16.98;;;2.80;99.90;;;;;;4992143;28;20045;-89
2021/11/03 06:44:33;;;;;;;35.88;17.90;;;2.80;99.90;;;;;;5019829;28;20062;-89
2021/11/03 06:47:02;;;;;;;33.17;16.02;;;2.80;99.90;;;;;;4986386;28;20045;-90
2021/11/03 06:49:30;;;;;;;29.17;15.82;;;2.80;99.90;;;;;;5001055;28;20046;-90
2021/11/03 06:51:59;;;;;;;30.17;16.15;;;2.80;99.90;;;;;;4990184;28;20057;-91
2021/11/03 06:54:29;;;;;;;26.42;15.43;;;4.20;99.90;;;;;;5007122;28;20045;-90
2021/11/03 06:57:03;;;;;;;33.60;16.23;;;2.70;99.90;;;;;;4992356;28;20046;-92
2021/11/03 06:59:34;;;;;;;36.08;17.55;;;2.70;99.90;;;;;;5025157;28;20052;-89
2021/11/03 07:02:04;;;;;;;27.58;15.07;;;2.70;99.90;;;;;;4994357;28;20050;-89
2021/11/03 07:04:47;;;;;;;29.58;15.73;;;2.70;99.90;;;;;;5011309;28;20052;-89
2021/11/03 07:07:31;;;;;;;28.63;15.05;;;3.50;99.90;;;;;;4997078;28;20064;-89
2021/11/03 07:10:17;;;;;;;29.80;16.42;;;2.70;99.90;;;;;;4999102;28;20049;-87
2021/11/03 07:12:48;;;;;;;34.75;17.20;;;2.60;99.90;;;;;;4984393;28;20520;-87
2021/11/03 07:15:19;;;;;;;33.97;17.25;;;2.70;99.90;;;;;;4984604;28;20057;-86
2021/11/03 07:17:47;;;;;;;30.90;16.77;;;2.70;99.90;;;;;;4998898;28;20042;-89
2021/11/03 07:20:16;;;;;;;31.85;18.02;;;4.00;99.90;;;;;;5018065;28;20053;-88
2021/11/03 07:22:46;;;;;;;30.10;18.48;;;2.70;99.90;;;;;;4998964;28;20050;-86
2021/11/03 07:25:20;;;;;;;39.05;18.55;;;2.80;99.90;;;;;;4974240;28;20501;-88
2021/11/03 07:27:52;;;;;;;36.45;18.77;;;2.70;99.90;;;;;;5002565;28;20038;-87
2021/11/03 07:30:24;;;;;;;47.00;19.65;;;2.90;99.90;;;;;;4986629;28;20054;-88
2021/11/03 07:32:52;;;;;;;44.65;19.23;;;2.60;99.90;;;;;;4987619;28;20042;-88
2021/11/03 07:35:21;;;;;;;63.42;22.73;;;2.60;99.90;;;;;;4989820;28;20065;-87
2021/11/03 07:37:56;;;;;;;49.55;19.67;;;2.70;99.90;;;;;;5021835;28;20520;-88
2021/11/03 07:40:33;;;;;;;49.38;18.52;;;2.70;99.90;;;;;;4985275;28;20054;-87
2021/11/03 07:43:08;;;;;;;35.08;18.05;;;2.70;99.90;;;;;;4983170;28;20049;-88
2021/11/03 07:45:47;;;;;;;35.47;18.60;;;2.80;99.90;;;;;;5003279;28;20038;-87
2021/11/03 07:48:20;;;;;;;38.38;19.77;;;2.70;99.90;;;;;;5009998;28;20053;-89
2021/11/03 07:50:59;;;;;;;37.70;18.88;;;3.00;99.90;;;;;;4985113;28;20042;-87
2021/11/03 07:53:36;;;;;;;;;;;4.70;99.90;;;;;;4989267;28;20053;-89
2021/11/03 07:56:14;;;;;;;35.05;19.17;;;2.80;99.90;;;;;;5001638;28;19929;-89
2021/11/03 07:58:45;;;;;;;45.67;21.67;;;4.30;99.90;;;;;;4980213;28;20055;-87
2021/11/03 08:01:15;;;;;;;36.25;18.85;;;2.90;99.90;;;;;;5030928;28;20053;-90
2021/11/03 08:03:43;;;;;;;36.60;18.77;;;2.90;99.90;;;;;;4985291;28;20532;-86
2021/11/03 08:06:13;;;;;;;37.90;19.50;;;4.00;99.90;;;;;;5013452;28;20049;-88
2021/11/03 08:08:49;;;;;;;49.20;20.55;;;3.00;99.90;;;;;;5003648;28;20064;-86
2021/11/03 08:11:27;;;;;;;48.90;22.30;;;3.10;99.90;;;;;;4990133;28;20058;-86
2021/11/03 08:13:55;;;;;;;39.50;21.42;;;2.50;99.90;;;;;;4984644;28;20045;-86
2021/11/03 08:16:23;;;;;;;37.58;19.17;;;3.30;99.90;;;;;;4997028;28;20516;-84
2021/11/03 08:18:52;;;;;;;44.88;23.38;;;3.30;99.90;;;;;;5028692;28;20050;-84
2021/11/03 08:21:26;;;;;;;37.70;18.88;;;4.80;99.90;;;;;;5021905;28;20037;-87
2021/11/03 08:23:54;;;;;;;42.25;23.00;;;3.40;99.90;;;;;;5004081;28;20437;-86
2021/11/03 08:26:22;;;;;;;30.73;17.35;;;4.10;99.90;;;;;;4658021;28;10000507;-88
2021/11/03 08:28:50;;;;;;;47.08;25.85;;;3.50;99.90;;;;;;4987552;28;20046;-87
2021/11/03 08:31:22;;;;;;;43.88;24.42;;;3.50;99.90;;;;;;5031360;28;20045;-92
2021/11/03 08:33:58;;;;;;;39.33;21.67;;;3.60;99.90;;;;;;4981632;28;20045;-91
2021/11/03 08:36:26;;;;;;;45.75;20.75;;;4.10;99.90;;;;;;4988517;28;20049;-88
2021/11/03 08:38:56;;;;;;;42.97;23.65;;;3.70;99.90;;;;;;5019613;28;20065;-90
2021/11/03 08:41:32;;;;;;;38.15;20.73;;;3.80;99.90;;;;;;5000998;28;20417;-90
2021/11/03 08:44:13;;;;;;;47.03;24.42;;;3.90;99.90;;;;;;5006528;28;20520;-90
2021/11/03 08:46:44;;;;;;;45.03;26.33;;;3.90;99.90;;;;;;5008620;28;20511;-89
2021/11/03 08:49:16;;;;;;;48.20;24.67;;;4.00;99.90;;;;;;5012600;28;20050;-90
2021/11/03 08:51:47;;;;;;;62.53;27.25;;;4.10;99.90;;;;;;5009662;28;20062;-89
2021/11/03 08:54:17;;;;;;;43.45;24.20;;;4.10;99.90;;;;;;5007919;28;20042;-89
2021/11/03 08:56:55;;;;;;;48.75;25.58;;;4.20;99.90;;;;;;5011972;28;20045;-95
2021/11/03 08:59:28;;;;;;;52.58;27.08;;;4.30;99.90;;;;;;4996950;28;20045;-93
2021/11/03 09:02:18;;;;;;;47.38;24.17;;;4.30;99.90;;;;;;5008204;28;20065;-88
2021/11/03 09:04:55;;;;;;;46.65;23.63;;;4.40;99.90;;;;;;5008780;28;20796;-90
2021/11/03 09:07:24;;;;;;;45.72;25.95;;;4.40;99.90;;;;;;5021644;28;20054;-91
2021/11/03 09:09:52;;;;;;;46.45;22.88;;;5.00;99.90;;;;;;5016330;28;20062;-88
2021/11/03 09:12:22;;;;;;;40.72;23.63;;;4.60;99.90;;;;;;4998950;28;20509;-89
2021/11/03 09:14:51;;;;;;;44.38;23.77;;;4.60;99.90;;;;;;5000828;28;20502;-91
2021/11/03 09:17:23;;;;;;;48.27;25.60;;;5.70;99.90;;;;;;5005041;28;20054;-93
2021/11/03 09:19:56;;;;;;;47.33;26.10;;;5.30;99.90;;;;;;5005225;28;20295;-88
2021/11/03 09:22:36;;;;;;;45.08;24.27;;;4.80;99.90;;;;;;5012600;28;20050;-87
2021/11/03 09:25:13;;;;;;;62.35;32.97;;;5.90;99.90;;;;;;4999830;28;20050;-94
2021/11/03 09:27:47;;;;;;;54.40;33.60;;;5.80;99.90;;;;;;5020725;28;20070;-91
2021/11/03 09:34:05;;;;;;;46.53;22.55;;;5.10;99.90;;;;;;5005928;28;20054;-92
2021/11/03 09:36:43;;;;;;;45.38;23.85;;;5.10;99.90;;;;;;4980988;28;20130;-89
2021/11/03 09:39:13;;;;;;;48.63;25.85;;;5.40;99.90;;;;;;5020599;28;20050;-88
2021/11/03 09:41:48;;;;;;;43.90;27.45;;;6.60;99.90;;;;;;5014573;28;20054;-90
2021/11/03 09:44:24;;;;;;;46.88;22.60;;;5.30;99.90;;;;;;4983531;28;20037;-90
2021/11/03 09:47:06;;;;;;;45.95;25.77;;;5.30;99.90;;;;;;5007356;28;20055;-90
2021/11/03 09:49:44;;;;;;;46.17;23.48;;;5.40;99.90;;;;;;5041819;28;20042;-91
2021/11/03 09:52:26;;;;;;;48.00;27.80;;;5.40;99.90;;;;;;5039475;28;20038;-90
2021/11/03 09:55:21;;;;;;;37.83;23.00;;;5.50;99.90;;;;;;5004959;28;20320;-90
2021/11/03 09:57:59;;;;;;;53.80;22.25;;;5.50;99.90;;;;;;4996158;28;20080;-90
2021/11/03 10:00:38;;;;;;;42.35;25.20;;;5.60;99.90;;;;;;5011472;28;20039;-89
2021/11/03 10:03:23;;;;;;;42.38;25.33;;;5.60;99.90;;;;;;5016980;28;20061;-93
2021/11/03 10:05:59;;;;;;;52.97;27.88;;;6.90;99.90;;;;;;4999130;28;20078;-90
2021/11/03 10:08:41;;;;;;;;;;;5.70;99.90;;;;;;5005225;28;20058;-94
2021/11/03 10:12:07;;;;;;;60.73;26.10;;;5.80;99.90;;;;;;5012037;28;19921;-93
2021/11/03 10:15:05;;;;;;;44.60;25.80;;;4.80;99.90;;;;;;5014090;28;20042;-89
2021/11/03 10:18:14;;;;;;;52.65;27.83;;;5.80;99.90;;;;;;5059852;22;20062;-81
2021/11/03 10:21:18;;;;;;;45.05;26.90;;;6.00;99.90;;;;;;5001375;28;20211;-86
2021/11/03 10:23:59;;;;;;;42.97;23.63;;;6.10;99.90;;;;;;5006567;28;20056;-81
2021/11/03 10:26:52;;;;;;;52.30;28.35;;;6.20;99.90;;;;;;4988392;28;20053;-81
2021/11/03 10:29:27;;;;;;;50.95;26.52;;;6.20;99.90;;;;;;5024775;28;20052;-81
2021/11/03 10:32:31;;;;;;;51.03;27.35;;;6.30;99.90;;;;;;5010088;28;20042;-83
2021/11/03 10:35:23;;;;;;;47.33;27.08;;;6.50;99.90;;;;;;4993985;28;20060;-84
2021/11/03 10:41:16;;;;;;;48.67;30.52;;;6.40;99.90;;;;;;4986789;28;20060;-84
2021/11/03 10:44:22;;;;;;;53.78;30.73;;;6.50;99.90;;;;;;5027386;28;20049;-83
2021/11/03 10:47:25;;;;;;;49.38;25.20;;;6.70;99.90;;;;;;5025272;28;20057;-83
2021/11/03 10:50:23;;;;;;;44.45;25.60;;;6.70;99.90;;;;;;5014154;28;20041;-85
2021/11/03 10:53:24;;;;;;;42.13;25.20;;;6.70;99.90;;;;;;5005486;28;20049;-82
2021/11/03 10:56:51;;;;;;;44.20;27.40;;;6.80;99.90;;;;;;4988106;28;20042;-85
2021/11/03 10:59:31;;;;;;;39.75;24.58;;;6.90;99.90;;;;;;4889617;29;20058;-82
2021/11/03 11:06:34;;;;;;;50.85;27.60;;;7.00;99.90;;;;;;4997225;28;20491;-87
2021/11/03 11:10:00;;;;;;;51.05;29.08;;;7.20;99.90;;;;;;5009664;28;20068;-86
2021/11/03 11:13:31;;;;;;;46.85;24.02;;;7.40;99.90;;;;;;4926383;28;20054;-84
2021/11/03 11:20:43;;;;;;;55.20;30.20;;;7.40;99.90;;;;;;4979067;28;20412;-88
2021/11/03 11:23:54;;;;;;;54.63;27.25;;;7.50;99.90;;;;;;4974191;28;20055;-85
2021/11/03 11:27:34;;;;;;;43.65;27.83;;;7.70;99.90;;;;;;4929643;29;20085;-85
2021/11/03 11:31:27;;;;;;;46.33;26.20;;;8.40;99.90;;;;;;4904335;29;20047;-86
2021/11/03 11:35:01;;;;;;;;;;;;;;;;;;;;;
2021/11/03 11:38:31;;;;;;;;;;;;;;;;;;;;;
2021/11/03 11:41:14;;;;;;;45.28;26.70;;;8.30;99.90;;;;;;4937768;29;20096;-84
2021/11/03 11:43:51;;;;;;;52.58;26.65;;;8.20;99.90;;;;;;4970537;28;20074;-85
2021/11/03 11:46:46;;;;;;;50.35;25.88;;;8.30;99.90;;;;;;4991060;28;20043;-85
2021/11/03 11:49:58;;;;;;;;;;;;;;;;;;;;;
2021/11/03 11:57:21;;;;;;;;;;;;;;;;;;;;;
2021/11/03 12:01:38;;;;;;;34.05;18.88;;;9.30;99.90;;;;;;4844969;29;20065;-85
2021/11/03 12:04:41;;;;;;;32.05;17.33;;;10.40;99.90;;;;;;4862919;29;20048;-88
2021/11/03 12:18:13;;;;;;;;;;;;;;;;;;;;;
2021/11/03 12:22:02;;;;;;;;;;;10.00;99.90;;;;;;4786040;29;20059;-89
2021/11/03 12:31:06;;;;;;;20.65;11.30;;;10.30;99.90;;;;;;4857796;29;20153;-90
2021/11/03 12:35:17;;;;;;;;;;;;;;;;;;;;;
2021/11/03 12:47:25;;;;;;;21.95;10.35;;;11.80;99.90;;;;;;4823429;29;20038;-81
2021/11/03 12:50:06;;;;;;;22.98;11.80;;;10.30;99.90;;;;;;4816518;29;20047;-83
2021/11/03 12:52:41;;;;;;;18.73;10.25;;;10.40;99.90;;;;;;4828481;29;20060;-81
2021/11/03 12:55:28;;;;;;;20.10;9.55;;;10.90;99.90;;;;;;4933788;28;20424;-84
2021/11/03 12:57:57;;;;;;;22.75;9.85;;;10.40;99.90;;;;;;4928689;29;20107;-85
2021/11/03 13:00:45;;;;;;;21.17;9.30;;;10.40;99.90;;;;;;4953494;29;20078;-86
2021/11/03 13:03:28;;;;;;;24.13;9.25;;;10.50;99.90;;;;;;4968102;28;20051;-83
2021/11/03 13:06:34;;;;;;;13.77;8.02;;;10.40;99.90;;;;;;4963599;28;20035;-82
2021/11/03 13:09:38;;;;;;;18.90;9.95;;;10.50;99.90;;;;;;4951522;29;20039;-87
2021/11/03 13:12:23;;;;;;;12.20;7.60;;;10.50;99.90;;;;;;4963042;28;20056;-82
2021/11/03 13:14:59;;;;;;;20.90;7.72;;;10.60;99.90;;;;;;4984452;28;20047;-84
2021/11/03 13:17:34;;;;;;;17.13;9.02;;;9.10;99.90;;;;;;4978324;28;20049;-84
2021/11/03 13:20:44;;;;;;;19.67;8.30;;;10.50;99.90;;;;;;4999542;28;20057;-85
2021/11/03 13:23:33;;;;;;;19.38;9.38;;;10.50;99.90;;;;;;4998820;28;20050;-80
2021/11/03 13:26:09;;;;;;;18.65;8.80;;;10.40;99.90;;;;;;4990130;28;20054;-82
2021/11/03 13:28:45;;;;;;;20.40;9.73;;;10.30;99.90;;;;;;4976317;28;20060;-82
2021/11/03 13:31:16;;;;;;;19.40;10.70;;;10.30;99.90;;;;;;4993183;28;20049;-85
2021/11/03 13:34:16;;;;;;;10.07;6.60;;;10.20;99.90;;;;;;4977610;28;20050;-82
2021/11/03 13:37:24;;;;;;;19.27;8.32;;;10.10;99.90;;;;;;4994658;28;20055;-84
2021/11/03 13:40:07;;;;;;;17.55;9.02;;;10.00;99.90;;;;;;4976188;28;20073;-82
2021/11/03 13:42:56;;;;;;;16.63;8.05;;;10.00;99.90;;;;;;4974428;28;20057;-83
2021/11/03 13:45:32;;;;;;;14.85;8.35;;;9.90;99.90;;;;;;4998197;28;20042;-82
2021/11/03 13:48:10;;;;;;;13.23;7.32;;;10.40;99.90;;;;;;5007249;28;20061;-81
2021/11/03 13:50:55;;;;;;;20.08;9.75;;;9.80;99.90;;;;;;4997099;28;20080;-83
2021/11/03 13:54:17;;;;;;;17.80;9.43;;;9.80;99.90;;;;;;4993944;28;20062;-81
2021/11/03 13:56:53;;;;;;;19.70;9.15;;;9.20;99.90;;;;;;4977639;28;20042;-82
2021/11/03 13:59:26;;;;;;;16.45;8.13;;;10.00;99.90;;;;;;4956783;28;20061;-81
2021/11/03 14:02:00;;;;;;;19.42;8.85;;;9.70;99.90;;;;;;4979581;28;20408;-81
2021/11/03 14:04:48;;;;;;;19.30;8.65;;;9.70;99.90;;;;;;4964013;28;20050;-80
2021/11/03 14:08:12;;;;;;;13.60;9.00;;;9.60;99.90;;;;;;5003497;28;20060;-91
2021/11/03 14:11:41;;;;;;;19.45;9.38;;;9.60;99.90;;;;;;5020335;23;20440;-89
2021/11/03 14:14:11;;;;;;;15.10;8.15;;;9.60;99.90;;;;;;4983037;28;20046;-88
2021/11/03 14:16:49;;;;;;;13.40;7.50;;;9.60;99.90;;;;;;4962788;28;20524;-88
2021/11/03 14:19:54;;;;;;;22.40;9.07;;;9.70;99.90;;;;;;5002160;28;20053;-94
2021/11/03 14:22:45;;;;;;;16.38;8.02;;;9.80;99.90;;;;;;4939584;29;20051;-91
2021/11/03 14:25:34;;;;;;;16.92;9.13;;;9.90;99.90;;;;;;4972615;28;21263;-93
2021/11/03 14:28:07;;;;;;;15.30;8.80;;;10.10;99.90;;;;;;4919845;29;20091;-91